createdAt,value
2023-05-16T00:03:38.189Z,34.22
2023-05-16T00:07:43.845Z,35.47
2023-05-16T00:11:46.931Z,33.75
2023-05-16T00:15:49.564Z,33.25
2023-05-16T00:19:58.208Z,32.63
2023-05-16T00:24:00.634Z,34.83
2023-05-16T00:28:02.857Z,35.10
2023-05-16T00:32:08.687Z,34.63
2023-05-16T00:36:11.230Z,35.63
2023-05-16T00:40:14.176Z,32.05
2023-05-16T00:44:17.848Z,30.63
2023-05-16T00:48:19.987Z,32.03
2023-05-16T00:52:22.432Z,31.67
2023-05-16T00:56:24.483Z,32.92
2023-05-16T01:00:27.271Z,29.92
2023-05-16T01:04:29.574Z,30.38
2023-05-16T01:08:31.615Z,32.58
2023-05-16T01:12:50.513Z,35.10
2023-05-16T01:17:01.802Z,35.50
2023-05-16T01:21:13.415Z,37.17
2023-05-16T01:25:36.673Z,36.92
2023-05-16T01:29:39.070Z,36.85
2023-05-16T01:33:41.178Z,41.67
2023-05-16T01:38:12.768Z,39.50
2023-05-16T01:42:16.216Z,39.72
2023-05-16T01:46:26.262Z,36.78
2023-05-16T01:50:34.178Z,35.50
2023-05-16T01:54:39.411Z,42.13
2023-05-16T01:58:41.853Z,38.65
2023-05-16T02:02:43.909Z,32.53
2023-05-16T02:06:46.157Z,34.13
2023-05-16T02:10:48.155Z,33.22
2023-05-16T02:14:50.164Z,29.20
2023-05-16T02:18:52.596Z,33.75
2023-05-16T02:22:54.647Z,29.75
2023-05-16T02:26:56.644Z,31.95
2023-05-16T02:31:01.962Z,30.60
2023-05-16T02:35:04.606Z,30.58
2023-05-16T02:39:07.699Z,31.67
2023-05-16T02:43:10.151Z,29.85
2023-05-16T02:47:12.188Z,31.98
2023-05-16T02:51:14.210Z,33.53
2023-05-16T02:55:22.318Z,32.88
2023-05-16T02:59:24.842Z,31.13
2023-05-16T03:03:27.264Z,28.92
2023-05-16T03:07:29.344Z,29.15
2023-05-16T03:11:36.877Z,34.10
2023-05-16T03:15:39.138Z,33.10
2023-05-16T03:19:41.254Z,31.40
2023-05-16T03:23:43.519Z,32.17
2023-05-16T03:27:45.586Z,29.42
2023-05-16T03:31:47.782Z,30.42
2023-05-16T03:35:50.798Z,27.73
2023-05-16T03:39:52.829Z,29.52
2023-05-16T03:43:54.857Z,28.00
2023-05-16T03:47:57.485Z,28.90
2023-05-16T03:51:59.535Z,27.42
2023-05-16T03:56:01.524Z,24.05
2023-05-16T04:00:07.705Z,22.48
2023-05-16T04:04:14.162Z,19.65
2023-05-16T04:08:16.197Z,19.13
2023-05-16T04:12:18.228Z,20.92
2023-05-16T04:16:20.313Z,20.60
2023-05-16T04:20:22.363Z,20.23
2023-05-16T04:24:26.523Z,20.95
2023-05-16T04:28:28.557Z,20.52
2023-05-16T04:32:30.736Z,16.48
2023-05-16T04:36:32.847Z,19.10
2023-05-16T04:40:35.241Z,16.70
2023-05-16T04:44:37.450Z,15.38
2023-05-16T04:48:39.474Z,17.02
2023-05-16T04:52:41.696Z,13.05
2023-05-16T04:56:43.825Z,9.82
2023-05-16T05:00:46.015Z,9.95
2023-05-16T05:04:48.164Z,8.82
2023-05-16T05:08:50.386Z,8.25
2023-05-16T05:12:52.429Z,9.88
2023-05-16T05:16:54.655Z,6.40
2023-05-16T05:20:56.766Z,6.43
2023-05-16T05:24:58.861Z,5.28
2023-05-16T05:29:05.376Z,4.45
2023-05-16T05:33:08.227Z,4.03
2023-05-16T05:37:10.270Z,4.47
2023-05-16T05:41:12.330Z,3.97
2023-05-16T05:45:15.363Z,3.08
2023-05-16T05:49:17.458Z,2.83
2023-05-16T05:53:19.503Z,1.40
2023-05-16T05:57:21.522Z,1.95
2023-05-16T06:01:24.481Z,1.20
2023-05-16T06:05:26.949Z,1.27
2023-05-16T06:09:29.176Z,4.10
2023-05-16T06:13:31.181Z,3.17
2023-05-16T06:17:33.367Z,1.40
2023-05-16T06:21:35.602Z,0.77
2023-05-16T06:25:37.663Z,0.50
2023-05-16T06:29:39.677Z,0.60
2023-05-16T06:33:41.903Z,0.75
2023-05-16T06:37:43.918Z,0.80
2023-05-16T06:41:46.030Z,2.10
2023-05-16T06:45:51.583Z,1.50
2023-05-16T06:49:53.702Z,1.00
2023-05-16T06:53:55.830Z,1.27
2023-05-16T06:57:57.910Z,0.50
2023-05-16T07:02:00.032Z,1.08
2023-05-16T07:06:02.110Z,1.88
2023-05-16T07:10:04.739Z,0.52
2023-05-16T07:14:06.803Z,0.90
2023-05-16T07:18:08.927Z,1.35
2023-05-16T07:22:12.144Z,2.75
2023-05-16T07:26:14.231Z,0.30
2023-05-16T07:30:16.348Z,0.22
2023-05-16T07:34:18.502Z,0.65
2023-05-16T07:38:21.494Z,0.60
2023-05-16T07:42:25.143Z,1.35
2023-05-16T07:46:27.346Z,0.82
2023-05-16T07:50:29.502Z,0.30
2023-05-16T07:54:33.277Z,1.45
2023-05-16T07:58:35.666Z,0.85
2023-05-16T08:02:38.066Z,2.35
2023-05-16T08:06:40.260Z,0.57
2023-05-16T08:10:42.315Z,2.53
2023-05-16T08:14:44.359Z,3.72
2023-05-16T08:18:47.968Z,2.67
2023-05-16T08:22:50.084Z,1.58
2023-05-16T08:26:52.158Z,1.05
2023-05-16T08:30:54.499Z,1.42
2023-05-16T08:34:56.674Z,1.27
2023-05-16T08:38:58.689Z,2.60
2023-05-16T08:43:01.261Z,1.75
2023-05-16T08:47:18.831Z,1.38
2023-05-16T08:55:26.827Z,1.13
2023-05-16T08:59:29.266Z,2.92
2023-05-16T09:03:31.441Z,1.17
2023-05-16T09:07:33.675Z,1.05
2023-05-16T09:11:37.162Z,2.47
2023-05-16T09:15:39.393Z,2.97
2023-05-16T09:19:43.639Z,2.22
2023-05-16T09:23:49.455Z,2.38
2023-05-16T09:27:56.035Z,2.85
2023-05-16T09:32:05.730Z,5.28
2023-05-16T09:36:08.361Z,6.07
2023-05-16T09:40:10.629Z,4.40
2023-05-16T09:44:12.935Z,4.07
2023-05-16T09:48:16.773Z,6.88
2023-05-16T09:52:19.172Z,6.53
2023-05-16T09:56:21.518Z,4.68
2023-05-16T10:00:29.844Z,6.68
2023-05-16T10:04:32.020Z,3.83
2023-05-16T10:08:36.593Z,5.05
2023-05-16T10:12:39.104Z,3.10
2023-05-16T10:16:43.771Z,5.97
2023-05-16T10:20:49.205Z,5.53
2023-05-16T10:25:07.030Z,4.97
2023-05-16T10:29:10.224Z,3.33
2023-05-16T10:33:17.195Z,5.47
2023-05-16T10:37:19.322Z,2.88
2023-05-16T10:41:22.065Z,4.63
2023-05-16T10:45:24.679Z,5.45
2023-05-16T10:49:27.735Z,5.35
2023-05-16T10:53:34.557Z,6.07
2023-05-16T10:57:36.884Z,7.60
2023-05-16T11:01:41.376Z,6.15
2023-05-16T11:05:43.872Z,5.50
2023-05-16T11:09:46.524Z,6.25
2023-05-16T11:13:55.637Z,5.75
2023-05-16T11:18:27.058Z,8.40
2023-05-16T11:22:29.688Z,3.58
2023-05-16T11:26:31.954Z,2.80
2023-05-16T11:30:34.145Z,6.07
2023-05-16T11:34:38.001Z,3.40
2023-05-16T11:38:43.394Z,3.50
2023-05-16T11:42:50.506Z,2.35
2023-05-16T11:46:52.747Z,3.78
2023-05-16T11:50:55.162Z,2.80
2023-05-16T11:55:01.292Z,3.22
2023-05-16T11:59:03.724Z,6.03
2023-05-16T12:03:06.575Z,2.88
2023-05-16T12:07:08.806Z,3.58
2023-05-16T12:11:10.884Z,2.70
2023-05-16T12:15:14.012Z,4.43
2023-05-16T12:19:16.514Z,3.53
2023-05-16T12:23:18.740Z,2.60
2023-05-16T12:27:27.991Z,2.22
2023-05-16T12:31:32.581Z,4.35
2023-05-16T12:35:37.361Z,4.80
2023-05-16T12:39:39.556Z,5.90
2023-05-16T12:43:41.674Z,4.70
2023-05-16T12:47:44.336Z,4.45
2023-05-16T12:51:58.527Z,3.85
2023-05-16T12:56:00.664Z,4.40
2023-05-16T13:00:02.805Z,4.60
2023-05-16T13:04:05.276Z,3.53
2023-05-16T13:08:07.663Z,2.40
2023-05-16T13:12:09.834Z,3.05
2023-05-16T13:16:11.987Z,2.17
2023-05-16T13:20:15.009Z,4.38
2023-05-16T13:24:17.489Z,3.22
2023-05-16T13:28:19.553Z,2.72
2023-05-16T13:32:21.671Z,2.53
2023-05-16T13:36:23.725Z,3.83
2023-05-16T13:40:25.823Z,2.65
2023-05-16T13:44:27.942Z,2.60
2023-05-16T13:48:29.978Z,3.90
2023-05-16T13:52:32.188Z,1.65
2023-05-16T13:56:34.255Z,3.28
2023-05-16T14:00:45.166Z,4.75
2023-05-16T14:04:49.895Z,3.80
2023-05-16T14:08:52.330Z,1.73
2023-05-16T14:12:54.380Z,2.97
2023-05-16T14:16:56.501Z,3.90
2023-05-16T14:20:58.829Z,3.25
2023-05-16T14:25:00.997Z,3.38
2023-05-16T14:29:03.147Z,3.78
2023-05-16T14:33:06.173Z,7.78
2023-05-16T14:37:10.218Z,3.03
2023-05-16T14:41:12.457Z,4.43
2023-05-16T14:45:15.194Z,3.28
2023-05-16T14:49:17.411Z,1.85
2023-05-16T14:53:21.476Z,2.03
2023-05-16T14:57:23.552Z,2.03
2023-05-16T15:01:25.943Z,4.25
2023-05-16T15:05:29.281Z,3.72
2023-05-16T15:09:31.505Z,2.78
2023-05-16T15:13:33.528Z,2.53
2023-05-16T15:17:35.624Z,2.42
2023-05-16T15:21:37.814Z,2.90
2023-05-16T15:25:39.874Z,4.20
2023-05-16T15:29:42.106Z,2.58
2023-05-16T15:33:48.133Z,2.17
2023-05-16T15:37:52.824Z,2.33
2023-05-16T15:45:59.998Z,1.92
2023-05-16T15:50:02.378Z,1.92
2023-05-16T15:54:04.933Z,4.50
2023-05-16T15:58:07.007Z,2.05
2023-05-16T16:02:09.123Z,3.03
2023-05-16T16:06:11.350Z,1.70
2023-05-16T16:10:13.481Z,1.58
2023-05-16T16:14:15.841Z,4.15
2023-05-16T16:18:17.884Z,1.95
2023-05-16T16:22:22.284Z,4.88
2023-05-16T16:26:24.837Z,2.65
2023-05-16T16:30:27.763Z,4.15
2023-05-16T16:34:29.835Z,2.05
2023-05-16T16:38:31.857Z,3.40
2023-05-16T16:42:33.880Z,2.72
2023-05-16T16:46:36.266Z,1.95
2023-05-16T16:50:38.392Z,1.90
2023-05-16T16:54:40.668Z,3.28
2023-05-16T16:58:42.756Z,2.15
2023-05-16T17:02:44.971Z,3.20
2023-05-16T17:06:48.659Z,1.90
2023-05-16T17:10:51.008Z,1.20
2023-05-16T17:14:53.580Z,2.95
2023-05-16T17:18:56.342Z,3.38
2023-05-16T17:22:58.467Z,1.85
2023-05-16T17:27:01.647Z,1.95
2023-05-16T17:31:03.970Z,3.50
2023-05-16T17:35:06.479Z,2.83
2023-05-16T17:39:10.477Z,3.15
2023-05-16T17:43:12.594Z,2.30
2023-05-16T17:47:14.736Z,2.28
2023-05-16T17:51:16.772Z,3.05
2023-05-16T17:55:18.836Z,1.80
2023-05-16T17:59:21.044Z,2.88
2023-05-16T18:03:23.209Z,2.63
2023-05-16T18:07:26.573Z,2.15
2023-05-16T18:11:28.725Z,3.40
2023-05-16T18:15:30.808Z,84.97
2023-05-16T18:19:32.936Z,3.72
2023-05-16T18:23:35.032Z,2.38
2023-05-16T18:27:37.856Z,2.25
2023-05-16T18:31:42.254Z,3.90
2023-05-16T18:35:44.268Z,3.22
2023-05-16T18:39:48.385Z,2.25
2023-05-16T18:43:50.398Z,3.45
2023-05-16T18:47:53.083Z,0.88
2023-05-16T18:51:55.866Z,2.90
2023-05-16T18:55:58.547Z,3.80
2023-05-16T19:00:01.595Z,2.63
2023-05-16T19:04:04.087Z,1.63
2023-05-16T19:08:07.017Z,3.03
2023-05-16T19:12:09.168Z,3.85
2023-05-16T19:16:11.316Z,2.75
2023-05-16T19:20:13.335Z,3.80
2023-05-16T19:24:15.996Z,1.45
2023-05-16T19:28:18.129Z,5.13
2023-05-16T19:32:20.381Z,3.60
2023-05-16T19:36:22.520Z,2.85
2023-05-16T19:40:24.560Z,5.47
2023-05-16T19:44:26.671Z,2.33
2023-05-16T19:48:29.195Z,2.72
2023-05-16T19:52:31.355Z,3.33
2023-05-16T19:56:33.563Z,3.05
2023-05-16T20:00:35.724Z,3.60
2023-05-16T20:04:37.883Z,3.55
2023-05-16T20:08:39.951Z,4.13
2023-05-16T20:12:42.250Z,2.35
2023-05-16T20:16:44.310Z,3.17
2023-05-16T20:20:46.430Z,2.20
2023-05-16T20:24:48.449Z,4.07
2023-05-16T20:28:50.648Z,1.83
2023-05-16T20:32:52.989Z,3.13
2023-05-16T20:36:55.097Z,3.78
2023-05-16T20:40:57.253Z,3.65
2023-05-16T20:44:59.425Z,4.72
2023-05-16T20:49:01.696Z,6.03
2023-05-16T20:53:03.867Z,1.83
2023-05-16T20:57:06.153Z,5.55
2023-05-16T21:01:08.935Z,3.85
2023-05-16T21:05:34.703Z,2.85
2023-05-16T21:09:33.787Z,2.92
2023-05-16T21:13:35.848Z,2.80
2023-05-16T21:17:39.431Z,3.45
2023-05-16T21:21:41.643Z,4.93
2023-05-16T21:25:43.727Z,4.05
2023-05-16T21:29:45.768Z,4.53
2023-05-16T21:33:47.956Z,2.97
2023-05-16T21:37:49.985Z,3.38
2023-05-16T21:41:52.201Z,2.40
2023-05-16T21:45:54.246Z,2.47
2023-05-16T21:49:56.302Z,3.70
2023-05-16T21:53:58.387Z,4.03
2023-05-16T21:58:01.609Z,4.30
2023-05-16T22:02:03.809Z,2.22
2023-05-16T22:06:06.166Z,4.32
2023-05-16T22:10:10.592Z,2.58
2023-05-16T22:14:12.717Z,3.63
2023-05-16T22:18:14.963Z,3.30
2023-05-16T22:22:17.164Z,4.15
2023-05-16T22:26:19.203Z,3.83
2023-05-16T22:30:21.361Z,5.32
2023-05-16T22:34:23.756Z,4.82
2023-05-16T22:38:25.774Z,3.22
2023-05-16T22:42:28.509Z,4.30
2023-05-16T22:46:30.621Z,4.45
2023-05-16T22:50:32.688Z,4.90
2023-05-16T22:54:34.719Z,4.72
2023-05-16T22:58:36.776Z,3.83
2023-05-16T23:02:39.209Z,3.95
2023-05-16T23:06:41.375Z,5.72
2023-05-16T23:10:43.426Z,4.93
2023-05-16T23:14:45.550Z,4.32
2023-05-16T23:18:47.717Z,4.00
2023-05-16T23:22:49.820Z,6.05
2023-05-16T23:26:51.943Z,3.88
2023-05-16T23:30:54.146Z,5.13
2023-05-16T23:34:56.667Z,4.25
2023-05-16T23:38:58.792Z,4.47
2023-05-16T23:43:00.867Z,6.22
2023-05-16T23:47:02.991Z,5.88
2023-05-16T23:51:07.450Z,3.78
2023-05-16T23:55:09.875Z,3.38
2023-05-16T23:59:11.925Z,6.28
